createdAt,value
2019-02-18T00:01:54.793Z,4.10
2019-02-18T00:04:26.456Z,4.47
2019-02-18T00:06:58.156Z,4.07
2019-02-18T00:09:29.919Z,4.57
2019-02-18T00:12:01.651Z,4.37
2019-02-18T00:14:33.354Z,4.50
2019-02-18T00:17:05.247Z,3.70
2019-02-18T00:19:36.988Z,4.00
2019-02-18T00:22:08.868Z,4.80
2019-02-18T00:24:40.592Z,4.57
2019-02-18T00:27:13.539Z,3.93
2019-02-18T00:29:45.226Z,4.07
2019-02-18T00:32:16.890Z,4.37
2019-02-18T00:34:48.614Z,3.83
2019-02-18T00:37:24.426Z,4.10
2019-02-18T00:39:53.638Z,4.30
2019-02-18T00:42:25.384Z,4.37
2019-02-18T00:44:57.082Z,4.27
2019-02-18T00:47:28.715Z,4.33
2019-02-18T00:50:00.421Z,4.03
2019-02-18T00:52:32.102Z,4.20
2019-02-18T00:55:03.934Z,4.43
2019-02-18T00:57:35.627Z,4.30
2019-02-18T01:00:08.422Z,3.90
2019-02-18T01:02:40.292Z,4.30
2019-02-18T01:05:12.034Z,4.10
2019-02-18T01:07:43.777Z,4.73
2019-02-18T01:10:15.461Z,4.30
2019-02-18T01:12:47.237Z,4.03
2019-02-18T01:15:18.923Z,4.07
2019-02-18T01:17:50.611Z,4.00
2019-02-18T01:20:22.306Z,4.10
2019-02-18T01:22:54.015Z,4.20
2019-02-18T01:25:25.814Z,3.93
2019-02-18T01:27:57.640Z,4.17
2019-02-18T01:30:41.142Z,3.93
2019-02-18T01:33:12.822Z,4.23
2019-02-18T01:35:44.682Z,3.97
2019-02-18T01:38:16.330Z,3.70
2019-02-18T01:40:47.979Z,3.87
2019-02-18T01:43:19.614Z,4.23
2019-02-18T01:45:51.456Z,4.33
2019-02-18T01:48:23.199Z,3.80
2019-02-18T01:50:54.914Z,4.10
2019-02-18T01:53:26.605Z,3.87
2019-02-18T01:55:58.343Z,4.47
2019-02-18T01:58:30.137Z,4.50
2019-02-18T02:01:01.778Z,3.57
2019-02-18T02:03:33.482Z,4.17
2019-02-18T02:06:05.343Z,4.37
2019-02-18T02:08:37.096Z,4.70
2019-02-18T02:11:08.847Z,3.70
2019-02-18T02:13:40.530Z,4.20
2019-02-18T02:16:13.460Z,4.13
2019-02-18T02:18:45.314Z,4.57
2019-02-18T02:21:16.988Z,4.20
2019-02-18T02:23:48.667Z,4.50
2019-02-18T02:26:20.348Z,4.53
2019-02-18T02:28:52.111Z,4.40
2019-02-18T02:31:23.815Z,3.90
2019-02-18T02:33:55.514Z,3.80
2019-02-18T02:36:27.170Z,4.23
2019-02-18T02:38:58.885Z,4.10
2019-02-18T02:41:30.678Z,3.97
2019-02-18T02:44:02.373Z,4.30
2019-02-18T02:46:34.026Z,4.00
2019-02-18T02:49:05.688Z,3.70
2019-02-18T02:51:37.317Z,3.53
2019-02-18T02:54:08.992Z,4.00
2019-02-18T02:56:40.673Z,3.47
2019-02-18T03:02:09.301Z,3.90
2019-02-18T03:04:40.967Z,3.60
2019-02-18T03:07:12.618Z,3.63
2019-02-18T03:09:44.590Z,4.07
2019-02-18T03:12:16.239Z,3.70
2019-02-18T03:14:48.161Z,4.00
2019-02-18T03:17:20.098Z,4.33
2019-02-18T03:19:51.909Z,4.03
2019-02-18T03:22:23.569Z,3.90
2019-02-18T03:25:28.144Z,3.77
2019-02-18T03:28:47.797Z,3.83
2019-02-18T03:31:25.007Z,3.60
2019-02-18T03:34:05.691Z,3.60
2019-02-18T03:36:37.420Z,3.63
2019-02-18T03:39:09.096Z,3.53
2019-02-18T03:41:41.127Z,4.20
2019-02-18T03:44:12.921Z,3.37
2019-02-18T03:46:44.612Z,3.57
2019-02-18T03:49:16.311Z,4.07
2019-02-18T03:51:47.980Z,4.20
2019-02-18T03:54:19.767Z,4.27
2019-02-18T03:56:51.614Z,3.80
2019-02-18T03:59:23.656Z,3.77
2019-02-18T04:01:55.302Z,4.33
2019-02-18T04:04:27.058Z,4.43
2019-02-18T04:06:58.698Z,4.07
2019-02-18T04:09:30.383Z,4.60
2019-02-18T04:12:02.167Z,3.73
2019-02-18T04:14:33.865Z,4.03
2019-02-18T04:17:05.566Z,3.90
2019-02-18T04:19:37.231Z,4.10
2019-02-18T04:22:08.944Z,4.20
2019-02-18T04:24:40.595Z,3.77
2019-02-18T04:27:12.284Z,3.77
2019-02-18T04:29:43.938Z,4.20
2019-02-18T04:32:15.706Z,3.43
2019-02-18T04:34:47.323Z,3.60
2019-02-18T04:37:19.020Z,4.27
2019-02-18T04:39:50.649Z,3.90
2019-02-18T04:42:22.393Z,4.23
2019-02-18T04:44:54.093Z,3.50
2019-02-18T04:47:25.764Z,3.90
2019-02-18T04:49:57.477Z,3.63
2019-02-18T04:52:29.227Z,3.93
2019-02-18T04:55:00.891Z,4.17
2019-02-18T04:57:32.574Z,3.83
2019-02-18T05:00:04.684Z,4.13
2019-02-18T05:02:36.489Z,4.10
2019-02-18T05:05:08.467Z,4.00
2019-02-18T05:07:40.440Z,4.30
2019-02-18T05:10:12.152Z,3.93
2019-02-18T05:12:43.847Z,4.43
2019-02-18T05:15:15.545Z,4.13
2019-02-18T05:17:47.392Z,3.93
2019-02-18T05:20:19.002Z,4.17
2019-02-18T05:22:50.769Z,4.83
2019-02-18T05:25:22.381Z,4.03
2019-02-18T05:27:54.152Z,4.03
2019-02-18T05:30:25.836Z,4.77
2019-02-18T05:32:57.500Z,4.87
2019-02-18T05:35:29.208Z,4.40
2019-02-18T05:38:00.985Z,4.60
2019-02-18T05:40:32.624Z,4.00
2019-02-18T05:43:04.328Z,4.70
2019-02-18T05:45:36.092Z,4.00
2019-02-18T05:48:07.749Z,3.93
2019-02-18T05:50:39.452Z,3.83
2019-02-18T05:53:11.376Z,3.50
2019-02-18T05:55:43.090Z,3.80
2019-02-18T05:58:14.820Z,4.03
2019-02-18T06:00:46.477Z,4.30
2019-02-18T06:03:18.238Z,4.07
2019-02-18T06:05:49.951Z,3.70
2019-02-18T06:08:21.629Z,4.33
2019-02-18T06:10:53.323Z,4.13
2019-02-18T06:13:24.974Z,3.90
2019-02-18T06:15:56.671Z,4.37
2019-02-18T06:18:28.381Z,4.67
2019-02-18T06:21:00.037Z,4.27
2019-02-18T06:23:31.713Z,4.00
2019-02-18T06:26:03.410Z,4.27
2019-02-18T06:28:35.159Z,4.50
2019-02-18T06:31:06.896Z,4.27
2019-02-18T06:33:38.567Z,3.50
2019-02-18T06:36:10.297Z,4.10
2019-02-18T06:38:41.935Z,4.20
2019-02-18T06:41:13.679Z,4.50
2019-02-18T06:43:45.343Z,4.10
2019-02-18T06:46:32.673Z,4.27
2019-02-18T06:49:25.138Z,4.13
2019-02-18T06:51:56.809Z,4.20
2019-02-18T06:54:28.556Z,4.20
2019-02-18T06:57:25.155Z,4.43
2019-02-18T07:00:02.014Z,4.20
2019-02-18T07:02:50.671Z,4.23
2019-02-18T07:05:46.388Z,4.17
2019-02-18T07:08:37.206Z,4.90
2019-02-18T07:11:13.174Z,4.30
2019-02-18T07:13:44.908Z,4.77
2019-02-18T07:16:16.610Z,4.57
2019-02-18T07:18:48.248Z,4.70
2019-02-18T07:21:21.365Z,4.97
2019-02-18T07:23:53.151Z,4.37
2019-02-18T07:26:24.929Z,4.50
2019-02-18T07:28:56.685Z,4.50
2019-02-18T07:31:28.521Z,4.77
2019-02-18T07:34:01.476Z,4.80
2019-02-18T07:36:34.988Z,3.90
2019-02-18T07:39:08.805Z,9.30
2019-02-18T07:41:40.681Z,5.90
2019-02-18T07:44:13.691Z,5.13
2019-02-18T07:46:45.325Z,4.50
2019-02-18T07:49:18.342Z,5.10
2019-02-18T07:51:50.048Z,5.10
2019-02-18T07:54:21.888Z,4.90
2019-02-18T07:56:53.592Z,4.70
2019-02-18T07:59:26.184Z,4.60
2019-02-18T08:01:57.967Z,4.70
2019-02-18T08:04:29.809Z,4.80
2019-02-18T08:07:01.740Z,4.37
2019-02-18T08:09:33.484Z,4.70
2019-02-18T08:12:05.127Z,4.43
2019-02-18T08:14:38.193Z,5.20
2019-02-18T08:17:09.871Z,4.70
2019-02-18T08:19:41.555Z,4.33
2019-02-18T08:22:13.217Z,4.70
2019-02-18T08:24:44.945Z,4.20
2019-02-18T08:27:16.647Z,4.30
2019-02-18T08:29:48.409Z,4.80
2019-02-18T08:32:20.295Z,4.40
2019-02-18T08:34:52.034Z,4.77
2019-02-18T08:37:24.470Z,4.63
2019-02-18T08:39:56.341Z,4.43
2019-02-18T08:42:28.312Z,4.73
2019-02-18T08:45:00.309Z,4.27
2019-02-18T08:47:32.162Z,5.00
2019-02-18T08:50:03.914Z,4.73
2019-02-18T08:52:35.590Z,4.80
2019-02-18T08:55:09.690Z,4.87
2019-02-18T08:57:41.549Z,4.77
2019-02-18T09:00:17.607Z,4.60
2019-02-18T09:02:49.294Z,4.83
2019-02-18T09:05:21.251Z,4.77
2019-02-18T09:07:53.217Z,4.60
2019-02-18T09:10:33.069Z,4.40
2019-02-18T09:12:58.352Z,4.13
2019-02-18T09:15:30.063Z,4.80
2019-02-18T09:18:03.160Z,4.13
2019-02-18T09:20:34.805Z,4.53
2019-02-18T09:23:25.555Z,4.00
2019-02-18T09:26:00.079Z,4.00
2019-02-18T09:28:32.679Z,4.20
2019-02-18T09:31:04.644Z,4.40
2019-02-18T09:33:36.608Z,4.73
2019-02-18T09:36:11.624Z,4.23
2019-02-18T09:38:46.533Z,5.47
2019-02-18T09:41:20.989Z,4.37
2019-02-18T09:43:54.215Z,4.00
2019-02-18T09:46:28.274Z,4.00
2019-02-18T09:49:01.381Z,4.47
2019-02-18T09:51:35.160Z,4.50
2019-02-18T09:54:07.388Z,4.40
2019-02-18T09:56:42.210Z,4.13
2019-02-18T09:59:13.899Z,4.83
2019-02-18T10:01:45.726Z,4.80
2019-02-18T10:04:19.523Z,4.90
2019-02-18T10:06:51.283Z,4.30
2019-02-18T10:09:23.177Z,4.47
2019-02-18T10:11:54.860Z,5.23
2019-02-18T10:14:26.681Z,5.33
2019-02-18T10:16:58.356Z,4.73
2019-02-18T10:19:30.232Z,5.50
2019-02-18T10:22:02.424Z,4.63
2019-02-18T10:24:34.138Z,4.47
2019-02-18T10:27:06.071Z,5.20
2019-02-18T10:29:37.833Z,4.80
2019-02-18T10:32:09.556Z,5.57
2019-02-18T10:34:41.245Z,5.07
2019-02-18T10:37:13.660Z,4.78
2019-02-18T10:39:45.886Z,5.35
2019-02-18T10:42:18.372Z,5.40
2019-02-18T10:44:50.737Z,5.30
2019-02-18T10:47:23.299Z,5.08
2019-02-18T10:49:55.601Z,4.83
2019-02-18T10:52:27.949Z,5.03
2019-02-18T10:55:00.273Z,5.87
2019-02-18T10:57:32.564Z,5.47
2019-02-18T11:00:07.823Z,5.28
2019-02-18T11:02:40.244Z,4.85
2019-02-18T11:05:12.559Z,5.33
2019-02-18T11:07:45.095Z,9.18
2019-02-18T11:10:17.549Z,5.90
2019-02-18T11:12:49.790Z,4.83
2019-02-18T11:15:22.031Z,5.28
2019-02-18T11:17:54.398Z,5.58
2019-02-18T11:20:26.680Z,5.05
2019-02-18T11:22:58.949Z,5.40
2019-02-18T11:25:31.220Z,5.60
2019-02-18T11:28:04.025Z,5.58
2019-02-18T11:30:38.969Z,5.58
2019-02-18T11:33:10.346Z,5.50
2019-02-18T11:35:42.672Z,5.42
2019-02-18T11:38:15.140Z,5.40
2019-02-18T11:40:47.522Z,5.45
2019-02-18T11:43:19.827Z,5.95
2019-02-18T11:45:52.048Z,5.20
2019-02-18T11:48:24.280Z,5.80
2019-02-18T11:50:57.032Z,5.22
2019-02-18T11:53:29.565Z,6.05
2019-02-18T11:56:02.116Z,5.55
2019-02-18T11:58:34.485Z,6.17
2019-02-18T12:01:06.836Z,5.42
2019-02-18T12:03:39.257Z,6.28
2019-02-18T12:06:11.637Z,5.92
2019-02-18T12:08:44.270Z,5.72
2019-02-18T12:11:16.628Z,5.87
2019-02-18T12:13:48.907Z,5.65
2019-02-18T12:16:21.336Z,5.50
2019-02-18T12:18:53.598Z,6.25
2019-02-18T12:21:25.881Z,5.83
2019-02-18T12:23:58.235Z,5.30
2019-02-18T12:26:30.622Z,6.15
2019-02-18T12:29:02.884Z,5.53
2019-02-18T12:31:35.218Z,5.55
2019-02-18T12:34:07.479Z,5.60
2019-02-18T12:36:39.822Z,5.70
2019-02-18T12:39:14.637Z,6.00
2019-02-18T12:41:49.034Z,4.90
2019-02-18T12:44:22.451Z,6.20
2019-02-18T12:46:54.932Z,5.70
2019-02-18T12:49:27.299Z,5.78
2019-02-18T12:52:08.510Z,5.83
2019-02-18T12:54:40.998Z,6.03
2019-02-18T12:57:13.479Z,6.45
2019-02-18T12:59:45.801Z,5.75
2019-02-18T13:02:18.440Z,5.65
2019-02-18T13:04:50.922Z,5.90
2019-02-18T13:07:23.141Z,5.17
2019-02-18T13:09:55.504Z,6.10
2019-02-18T13:12:27.874Z,6.37
2019-02-18T13:15:00.335Z,5.65
2019-02-18T13:17:32.721Z,5.37
2019-02-18T13:20:05.203Z,5.15
2019-02-18T13:22:37.697Z,5.25
2019-02-18T13:25:10.387Z,5.78
2019-02-18T13:27:42.895Z,5.30
2019-02-18T13:30:16.450Z,5.60
2019-02-18T13:32:48.829Z,5.70
2019-02-18T13:35:21.157Z,6.37
2019-02-18T13:37:53.537Z,5.47
2019-02-18T13:40:25.912Z,5.97
2019-02-18T13:42:58.329Z,5.30
2019-02-18T13:45:30.641Z,5.35
2019-02-18T13:48:03.135Z,5.60
2019-02-18T13:50:35.580Z,6.00
2019-02-18T13:53:08.247Z,5.95
2019-02-18T13:55:40.725Z,5.72
2019-02-18T13:58:13.029Z,5.72
2019-02-18T14:00:45.423Z,6.12
2019-02-18T14:03:17.707Z,5.53
2019-02-18T14:05:50.257Z,5.40
2019-02-18T14:08:22.525Z,5.25
2019-02-18T14:10:54.932Z,5.03
2019-02-18T14:13:27.312Z,5.97
2019-02-18T14:15:59.948Z,5.10
2019-02-18T14:18:32.291Z,5.30
2019-02-18T14:21:04.596Z,5.20
2019-02-18T14:23:37.038Z,5.92
2019-02-18T14:26:09.542Z,5.37
2019-02-18T14:28:42.463Z,5.28
2019-02-18T14:31:14.926Z,6.50
2019-02-18T14:33:47.231Z,5.67
2019-02-18T14:36:19.607Z,5.33
2019-02-18T14:38:51.925Z,6.70
2019-02-18T14:41:24.511Z,5.78
2019-02-18T14:43:57.054Z,6.70
2019-02-18T14:46:29.301Z,5.65
2019-02-18T14:49:01.568Z,5.15
2019-02-18T14:51:33.971Z,4.90
2019-02-18T14:54:08.352Z,4.85
2019-02-18T14:56:42.570Z,5.60
2019-02-18T14:59:14.884Z,5.58
2019-02-18T15:01:47.299Z,5.12
2019-02-18T15:04:19.917Z,5.00
2019-02-18T15:06:51.681Z,5.63
2019-02-18T15:09:24.086Z,6.12
2019-02-18T15:11:55.863Z,6.07
2019-02-18T15:14:27.658Z,5.70
2019-02-18T15:17:18.674Z,5.20
2019-02-18T15:19:50.375Z,4.77
2019-02-18T15:22:22.129Z,4.93
2019-02-18T15:24:53.968Z,5.50
2019-02-18T15:27:25.942Z,4.70
2019-02-18T15:29:57.806Z,5.20
2019-02-18T15:32:29.755Z,4.90
2019-02-18T15:35:01.485Z,5.33
2019-02-18T15:37:33.552Z,5.57
2019-02-18T15:40:06.398Z,5.27
2019-02-18T15:42:42.295Z,5.40
2019-02-18T15:45:12.094Z,5.03
2019-02-18T15:47:43.860Z,6.37
2019-02-18T15:50:16.759Z,5.13
2019-02-18T15:52:52.450Z,5.40
2019-02-18T15:55:30.087Z,4.97
2019-02-18T15:58:03.423Z,5.33
2019-02-18T16:00:38.483Z,5.77
2019-02-18T16:03:10.220Z,5.20
2019-02-18T16:05:42.095Z,5.67
2019-02-18T16:08:13.848Z,5.53
2019-02-18T16:10:47.741Z,5.43
2019-02-18T16:13:19.486Z,4.80
2019-02-18T16:15:52.431Z,5.27
2019-02-18T16:18:25.762Z,4.93
2019-02-18T16:20:57.571Z,5.40
2019-02-18T16:23:29.379Z,5.20
2019-02-18T16:26:01.127Z,4.60
2019-02-18T16:28:32.870Z,5.43
2019-02-18T16:31:04.775Z,4.40
2019-02-18T16:33:36.597Z,5.13
2019-02-18T16:36:10.079Z,4.47
2019-02-18T16:38:43.253Z,5.17
2019-02-18T16:41:16.501Z,8.57
2019-02-18T16:43:48.451Z,9.60
2019-02-18T16:46:20.580Z,7.83
2019-02-18T16:48:56.494Z,6.30
2019-02-18T16:51:28.203Z,4.43
2019-02-18T16:54:02.151Z,3.87
2019-02-18T16:56:35.327Z,3.37
2019-02-18T16:59:07.381Z,2.93
2019-02-18T17:01:39.146Z,2.73
2019-02-18T17:04:10.892Z,2.93
2019-02-18T17:06:44.268Z,3.17
2019-02-18T17:09:16.324Z,2.80
2019-02-18T17:11:48.087Z,3.23
2019-02-18T17:14:20.051Z,3.37
2019-02-18T17:16:52.363Z,3.73
2019-02-18T17:19:25.484Z,3.77
2019-02-18T17:21:57.198Z,3.47
2019-02-18T17:24:28.981Z,4.20
2019-02-18T17:27:00.806Z,4.20
2019-02-18T17:29:32.756Z,4.10
2019-02-18T17:32:04.723Z,3.30
2019-02-18T17:34:36.552Z,3.70
2019-02-18T17:37:08.310Z,3.50
2019-02-18T17:39:40.160Z,3.07
2019-02-18T17:42:12.028Z,3.27
2019-02-18T17:44:43.856Z,3.20
2019-02-18T17:47:15.827Z,3.57
2019-02-18T17:49:47.598Z,3.20
2019-02-18T17:52:19.477Z,3.67
2019-02-18T17:54:52.791Z,3.53
2019-02-18T17:57:24.765Z,3.20
2019-02-18T17:59:56.592Z,3.60
2019-02-18T18:02:28.470Z,3.70
2019-02-18T18:05:00.291Z,3.30
2019-02-18T18:07:32.111Z,3.97
2019-02-18T18:10:03.867Z,3.87
2019-02-18T18:12:39.559Z,3.57
2019-02-18T18:15:10.764Z,3.50
2019-02-18T18:17:45.163Z,3.90
2019-02-18T18:20:18.232Z,3.40
2019-02-18T18:22:52.431Z,3.60
2019-02-18T18:25:24.238Z,3.93
2019-02-18T18:27:56.216Z,3.67
2019-02-18T18:30:28.204Z,3.27
2019-02-18T18:33:01.290Z,3.50
2019-02-18T18:35:33.010Z,4.23
2019-02-18T18:38:06.847Z,4.20
2019-02-18T18:40:41.555Z,3.83
2019-02-18T18:43:13.603Z,4.00
2019-02-18T18:45:46.401Z,3.57
2019-02-18T18:48:21.585Z,3.60
2019-02-18T18:50:53.437Z,3.83
2019-02-18T18:53:28.232Z,3.97
2019-02-18T18:56:00.073Z,3.47
2019-02-18T18:58:33.357Z,3.77
2019-02-18T19:01:08.228Z,4.00
2019-02-18T19:03:43.043Z,4.03
2019-02-18T19:06:16.623Z,4.23
2019-02-18T19:08:48.779Z,4.17
2019-02-18T19:11:20.682Z,4.10
2019-02-18T19:13:52.419Z,4.67
2019-02-18T19:16:24.354Z,4.30
2019-02-18T19:18:57.536Z,3.80
2019-02-18T19:21:29.507Z,4.30
2019-02-18T19:24:01.396Z,3.97
2019-02-18T19:26:33.387Z,4.07
2019-02-18T19:29:05.243Z,4.30
2019-02-18T19:31:38.679Z,4.60
2019-02-18T19:34:10.617Z,4.40
2019-02-18T19:36:42.619Z,4.77
2019-02-18T19:39:19.904Z,4.83
2019-02-18T19:41:51.839Z,4.90
2019-02-18T19:44:24.025Z,4.50
2019-02-18T19:46:56.110Z,4.50
2019-02-18T19:49:30.546Z,4.90
2019-02-18T19:52:02.473Z,4.60
2019-02-18T19:54:34.314Z,4.53
2019-02-18T19:57:06.124Z,4.70
2019-02-18T19:59:37.952Z,5.10
2019-02-18T20:02:11.303Z,4.70
2019-02-18T20:04:43.416Z,4.20
2019-02-18T20:07:15.583Z,4.77
2019-02-18T20:09:47.642Z,4.83
2019-02-18T20:12:19.503Z,4.30
2019-02-18T20:14:51.216Z,4.80
2019-02-18T20:17:23.097Z,4.83
2019-02-18T20:19:55.039Z,4.10
2019-02-18T20:22:27.073Z,4.53
2019-02-18T20:24:59.469Z,4.93
2019-02-18T20:27:31.348Z,4.30
2019-02-18T20:30:03.322Z,4.73
2019-02-18T20:32:35.150Z,4.30
2019-02-18T20:35:07.863Z,4.67
2019-02-18T20:37:39.856Z,4.47
2019-02-18T20:40:12.647Z,4.33
2019-02-18T20:42:44.820Z,4.77
2019-02-18T20:45:16.908Z,4.93
2019-02-18T20:47:48.663Z,4.60
2019-02-18T20:50:20.521Z,4.20
2019-02-18T20:52:52.328Z,4.53
2019-02-18T20:55:24.273Z,4.83
2019-02-18T20:57:56.131Z,4.90
2019-02-18T21:00:27.992Z,4.63
2019-02-18T21:02:59.806Z,4.60
2019-02-18T21:05:31.616Z,4.07
2019-02-18T21:08:03.850Z,4.50
2019-02-18T21:10:35.747Z,5.30
2019-02-18T21:13:07.551Z,4.60
2019-02-18T21:15:40.787Z,4.97
2019-02-18T21:18:12.834Z,4.43
2019-02-18T21:20:44.656Z,4.60
2019-02-18T21:23:16.924Z,4.47
2019-02-18T21:25:48.715Z,4.53
2019-02-18T21:28:21.806Z,4.27
2019-02-18T21:30:53.945Z,4.57
2019-02-18T21:33:25.806Z,4.63
2019-02-18T21:35:57.557Z,4.73
2019-02-18T21:38:31.406Z,5.00
2019-02-18T21:41:05.930Z,5.03
2019-02-18T21:43:39.297Z,4.73
2019-02-18T21:46:16.549Z,4.90
2019-02-18T21:48:48.490Z,4.93
2019-02-18T21:51:21.459Z,4.13
2019-02-18T21:53:53.683Z,5.00
2019-02-18T21:56:26.587Z,4.60
2019-02-18T21:58:59.118Z,4.30
2019-02-18T22:01:38.574Z,4.40
2019-02-18T22:04:11.080Z,4.70
2019-02-18T22:06:44.055Z,4.93
2019-02-18T22:09:15.756Z,4.00
2019-02-18T22:11:48.580Z,4.53
2019-02-18T22:14:21.279Z,4.47
2019-02-18T22:16:53.564Z,4.50
2019-02-18T22:19:26.193Z,4.33
2019-02-18T22:21:59.693Z,4.67
2019-02-18T22:24:33.469Z,4.77
2019-02-18T22:27:08.050Z,4.57
2019-02-18T22:29:42.219Z,4.63
2019-02-18T22:32:17.636Z,4.50
2019-02-18T22:34:49.813Z,4.27
2019-02-18T22:37:30.290Z,4.23
2019-02-18T22:40:05.243Z,5.10
2019-02-18T22:42:41.441Z,4.07
2019-02-18T22:45:13.913Z,5.13
2019-02-18T22:47:47.008Z,4.43
2019-02-18T22:50:19.629Z,4.30
2019-02-18T22:52:51.669Z,4.50
2019-02-18T22:55:25.809Z,4.93
2019-02-18T22:57:58.480Z,4.53
2019-02-18T23:01:00.881Z,4.27
2019-02-18T23:03:33.027Z,4.30
2019-02-18T23:06:06.012Z,4.03
2019-02-18T23:08:42.657Z,4.27
2019-02-18T23:11:14.737Z,4.20
2019-02-18T23:13:47.460Z,3.93
2019-02-18T23:16:21.754Z,4.77
2019-02-18T23:18:54.549Z,3.93
2019-02-18T23:21:27.524Z,4.50
2019-02-18T23:24:00.426Z,4.40
2019-02-18T23:26:37.370Z,4.43
2019-02-18T23:29:12.322Z,3.90
2019-02-18T23:31:44.674Z,4.00
2019-02-18T23:34:17.652Z,3.93
2019-02-18T23:36:51.376Z,4.00
2019-02-18T23:39:24.682Z,4.13
2019-02-18T23:41:57.669Z,4.47
2019-02-18T23:44:31.210Z,4.40
2019-02-18T23:47:04.105Z,4.17
2019-02-18T23:49:37.892Z,4.67
2019-02-18T23:52:10.885Z,3.73
2019-02-18T23:54:56.234Z,3.93
2019-02-18T23:57:29.529Z,4.27
